sensor_id;sensor_type;location;lat;lon;timestamp;temperature;humidity
53904;DHT22;39812;52.430;16.936;2023-10-09T00:00:16;5.60;99.90
53904;DHT22;39812;52.430;16.936;2023-10-09T00:03:00;5.50;99.90
53904;DHT22;39812;52.430;16.936;2023-10-09T00:05:27;5.60;99.90
53904;DHT22;39812;52.430;16.936;2023-10-09T00:08:17;5.60;99.90
53904;DHT22;39812;52.430;16.936;2023-10-09T00:10:47;5.50;99.90
53904;DHT22;39812;52.430;16.936;2023-10-09T00:13:26;5.50;99.90
53904;DHT22;39812;52.430;16.936;2023-10-09T00:16:04;5.50;99.90
53904;DHT22;39812;52.430;16.936;2023-10-09T00:18:40;5.50;99.90
53904;DHT22;39812;52.430;16.936;2023-10-09T00:21:18;5.50;99.90
53904;DHT22;39812;52.430;16.936;2023-10-09T00:23:48;5.50;99.90
53904;DHT22;39812;52.430;16.936;2023-10-09T00:26:25;5.50;99.90
53904;DHT22;39812;52.430;16.936;2023-10-09T00:28:51;5.50;99.90
53904;DHT22;39812;52.430;16.936;2023-10-09T00:31:20;5.40;99.90
53904;DHT22;39812;52.430;16.936;2023-10-09T00:34:12;5.30;99.90
53904;DHT22;39812;52.430;16.936;2023-10-09T00:36:44;5.30;99.90
53904;DHT22;39812;52.430;16.936;2023-10-09T00:39:16;5.20;99.90
53904;DHT22;39812;52.430;16.936;2023-10-09T00:41:45;5.30;99.90
53904;DHT22;39812;52.430;16.936;2023-10-09T00:44:11;5.40;99.90
53904;DHT22;39812;52.430;16.936;2023-10-09T00:46:37;5.40;99.90
53904;DHT22;39812;52.430;16.936;2023-10-09T00:49:07;5.50;99.90
53904;DHT22;39812;52.430;16.936;2023-10-09T00:51:36;5.60;99.90
53904;DHT22;39812;52.430;16.936;2023-10-09T00:54:07;5.70;99.90
53904;DHT22;39812;52.430;16.936;2023-10-09T00:56:39;5.70;99.90
53904;DHT22;39812;52.430;16.936;2023-10-09T00:59:09;5.70;99.90
53904;DHT22;39812;52.430;16.936;2023-10-09T01:01:40;5.80;99.90
53904;DHT22;39812;52.430;16.936;2023-10-09T01:04:06;5.80;99.90
53904;DHT22;39812;52.430;16.936;2023-10-09T01:06:37;5.80;99.90
53904;DHT22;39812;52.430;16.936;2023-10-09T01:09:13;5.80;99.90
53904;DHT22;39812;52.430;16.936;2023-10-09T01:11:40;5.80;99.90
53904;DHT22;39812;52.430;16.936;2023-10-09T01:14:29;5.80;99.90
53904;DHT22;39812;52.430;16.936;2023-10-09T01:16:57;5.90;99.50
53904;DHT22;39812;52.430;16.936;2023-10-09T01:19:23;5.90;99.20
53904;DHT22;39812;52.430;16.936;2023-10-09T01:21:53;5.90;99.00
53904;DHT22;39812;52.430;16.936;2023-10-09T01:24:20;6.00;98.70
53904;DHT22;39812;52.430;16.936;2023-10-09T01:26:46;6.00;98.60
53904;DHT22;39812;52.430;16.936;2023-10-09T01:29:13;6.00;98.70
53904;DHT22;39812;52.430;16.936;2023-10-09T01:31:48;6.00;98.20
53904;DHT22;39812;52.430;16.936;2023-10-09T01:34:34;6.10;97.90
53904;DHT22;39812;52.430;16.936;2023-10-09T01:37:19;6.10;97.40
53904;DHT22;39812;52.430;16.936;2023-10-09T01:39:52;6.20;96.70
53904;DHT22;39812;52.430;16.936;2023-10-09T01:42:19;6.20;96.00
53904;DHT22;39812;52.430;16.936;2023-10-09T01:45:00;6.40;95.40
53904;DHT22;39812;52.430;16.936;2023-10-09T01:47:52;6.40;95.70
53904;DHT22;39812;52.430;16.936;2023-10-09T01:50:19;6.50;94.80
53904;DHT22;39812;52.430;16.936;2023-10-09T01:52:47;6.60;94.80
53904;DHT22;39812;52.430;16.936;2023-10-09T01:55:13;6.60;94.60
53904;DHT22;39812;52.430;16.936;2023-10-09T01:58:14;6.70;94.30
53904;DHT22;39812;52.430;16.936;2023-10-09T02:00:51;6.70;93.60
53904;DHT22;39812;52.430;16.936;2023-10-09T02:03:27;6.70;93.70
53904;DHT22;39812;52.430;16.936;2023-10-09T02:05:55;6.70;93.60
53904;DHT22;39812;52.430;16.936;2023-10-09T02:08:28;6.80;93.50
53904;DHT22;39812;52.430;16.936;2023-10-09T02:11:01;6.80;93.90
53904;DHT22;39812;52.430;16.936;2023-10-09T02:13:28;6.70;94.60
53904;DHT22;39812;52.430;16.936;2023-10-09T02:16:00;6.70;94.70
53904;DHT22;39812;52.430;16.936;2023-10-09T02:18:41;6.70;94.80
53904;DHT22;39812;52.430;16.936;2023-10-09T02:21:19;6.70;94.70
53904;DHT22;39812;52.430;16.936;2023-10-09T02:23:58;6.80;95.10
53904;DHT22;39812;52.430;16.936;2023-10-09T02:26:28;6.80;95.50
53904;DHT22;39812;52.430;16.936;2023-10-09T02:29:11;6.80;95.90
53904;DHT22;39812;52.430;16.936;2023-10-09T02:31:40;6.70;96.00
53904;DHT22;39812;52.430;16.936;2023-10-09T02:34:09;6.80;96.00
53904;DHT22;39812;52.430;16.936;2023-10-09T02:36:40;6.80;95.80
53904;DHT22;39812;52.430;16.936;2023-10-09T02:39:14;6.80;95.90
53904;DHT22;39812;52.430;16.936;2023-10-09T02:41:53;6.80;95.10
53904;DHT22;39812;52.430;16.936;2023-10-09T02:44:23;6.80;95.80
53904;DHT22;39812;52.430;16.936;2023-10-09T02:46:55;6.90;95.50
53904;DHT22;39812;52.430;16.936;2023-10-09T02:49:23;6.90;95.80
53904;DHT22;39812;52.430;16.936;2023-10-09T02:51:49;6.90;95.90
53904;DHT22;39812;52.430;16.936;2023-10-09T02:54:19;6.90;95.50
53904;DHT22;39812;52.430;16.936;2023-10-09T02:56:49;6.90;95.60
53904;DHT22;39812;52.430;16.936;2023-10-09T02:59:22;6.90;96.40
53904;DHT22;39812;52.430;16.936;2023-10-09T03:01:48;6.80;96.80
53904;DHT22;39812;52.430;16.936;2023-10-09T03:04:14;6.80;97.10
53904;DHT22;39812;52.430;16.936;2023-10-09T03:06:41;6.80;97.60
53904;DHT22;39812;52.430;16.936;2023-10-09T03:09:19;6.70;97.80
53904;DHT22;39812;52.430;16.936;2023-10-09T03:11:53;6.60;98.20
53904;DHT22;39812;52.430;16.936;2023-10-09T03:14:22;6.60;98.30
53904;DHT22;39812;52.430;16.936;2023-10-09T03:16:55;6.60;98.30
53904;DHT22;39812;52.430;16.936;2023-10-09T03:19:22;6.60;98.60
53904;DHT22;39812;52.430;16.936;2023-10-09T03:21:48;6.60;98.50
53904;DHT22;39812;52.430;16.936;2023-10-09T03:24:13;6.60;98.40
53904;DHT22;39812;52.430;16.936;2023-10-09T03:26:41;6.70;98.00
53904;DHT22;39812;52.430;16.936;2023-10-09T03:29:06;6.70;97.60
53904;DHT22;39812;52.430;16.936;2023-10-09T03:31:36;6.70;97.50
53904;DHT22;39812;52.430;16.936;2023-10-09T03:34:02;6.70;97.40
53904;DHT22;39812;52.430;16.936;2023-10-09T03:36:28;6.70;97.50
53904;DHT22;39812;52.430;16.936;2023-10-09T03:38:57;6.80;97.40
53904;DHT22;39812;52.430;16.936;2023-10-09T03:41:26;6.80;97.60
53904;DHT22;39812;52.430;16.936;2023-10-09T03:43:53;6.80;97.70
53904;DHT22;39812;52.430;16.936;2023-10-09T03:46:22;6.70;97.90
53904;DHT22;39812;52.430;16.936;2023-10-09T03:48:52;6.70;98.10
53904;DHT22;39812;52.430;16.936;2023-10-09T03:51:21;6.70;97.80
53904;DHT22;39812;52.430;16.936;2023-10-09T03:53:48;6.80;97.10
53904;DHT22;39812;52.430;16.936;2023-10-09T03:56:14;6.90;97.00
53904;DHT22;39812;52.430;16.936;2023-10-09T03:58:45;7.00;96.50
53904;DHT22;39812;52.430;16.936;2023-10-09T04:01:16;7.10;96.50
53904;DHT22;39812;52.430;16.936;2023-10-09T04:03:58;7.20;95.80
53904;DHT22;39812;52.430;16.936;2023-10-09T04:06:28;7.30;96.10
53904;DHT22;39812;52.430;16.936;2023-10-09T04:09:02;7.30;95.10
53904;DHT22;39812;52.430;16.936;2023-10-09T04:11:53;7.40;95.40
53904;DHT22;39812;52.430;16.936;2023-10-09T04:14:40;7.40;95.70
53904;DHT22;39812;52.430;16.936;2023-10-09T04:17:19;7.40;95.70
53904;DHT22;39812;52.430;16.936;2023-10-09T04:19:48;7.40;95.70
53904;DHT22;39812;52.430;16.936;2023-10-09T04:22:14;7.40;95.50
53904;DHT22;39812;52.430;16.936;2023-10-09T04:25:00;7.40;95.70
53904;DHT22;39812;52.430;16.936;2023-10-09T04:27:26;7.40;95.30
53904;DHT22;39812;52.430;16.936;2023-10-09T04:30:01;7.40;95.40
53904;DHT22;39812;52.430;16.936;2023-10-09T04:32:26;7.50;95.20
53904;DHT22;39812;52.430;16.936;2023-10-09T04:34:52;7.50;95.30
53904;DHT22;39812;52.430;16.936;2023-10-09T04:37:44;7.60;95.20
53904;DHT22;39812;52.430;16.936;2023-10-09T04:40:17;7.50;95.30
53904;DHT22;39812;52.430;16.936;2023-10-09T04:43:02;7.50;95.50
53904;DHT22;39812;52.430;16.936;2023-10-09T04:45:38;7.60;95.70
53904;DHT22;39812;52.430;16.936;2023-10-09T04:48:10;7.60;95.80
53904;DHT22;39812;52.430;16.936;2023-10-09T04:50:36;7.60;95.90
53904;DHT22;39812;52.430;16.936;2023-10-09T04:53:12;7.60;96.10
53904;DHT22;39812;52.430;16.936;2023-10-09T04:55:40;7.60;96.40
53904;DHT22;39812;52.430;16.936;2023-10-09T04:58:10;7.50;96.90
53904;DHT22;39812;52.430;16.936;2023-10-09T05:00:49;7.40;97.30
53904;DHT22;39812;52.430;16.936;2023-10-09T05:03:28;7.40;98.00
53904;DHT22;39812;52.430;16.936;2023-10-09T05:05:55;7.30;98.40
53904;DHT22;39812;52.430;16.936;2023-10-09T05:08:27;7.20;98.80
53904;DHT22;39812;52.430;16.936;2023-10-09T05:10:54;7.10;99.10
53904;DHT22;39812;52.430;16.936;2023-10-09T05:13:29;7.10;99.80
53904;DHT22;39812;52.430;16.936;2023-10-09T05:16:16;7.10;99.90
53904;DHT22;39812;52.430;16.936;2023-10-09T05:18:51;7.00;99.90
53904;DHT22;39812;52.430;16.936;2023-10-09T05:21:29;7.00;99.90
53904;DHT22;39812;52.430;16.936;2023-10-09T05:23:58;7.00;99.90
53904;DHT22;39812;52.430;16.936;2023-10-09T05:26:43;7.00;99.90
53904;DHT22;39812;52.430;16.936;2023-10-09T05:29:15;7.00;99.90
53904;DHT22;39812;52.430;16.936;2023-10-09T05:32:05;7.10;99.90
53904;DHT22;39812;52.430;16.936;2023-10-09T05:34:46;7.20;99.90
53904;DHT22;39812;52.430;16.936;2023-10-09T05:37:28;7.20;99.90
53904;DHT22;39812;52.430;16.936;2023-10-09T05:40:09;7.20;99.90
53904;DHT22;39812;52.430;16.936;2023-10-09T05:42:40;7.20;99.90
53904;DHT22;39812;52.430;16.936;2023-10-09T05:45:11;7.30;99.90
53904;DHT22;39812;52.430;16.936;2023-10-09T05:47:49;7.30;99.90
53904;DHT22;39812;52.430;16.936;2023-10-09T05:50:34;7.30;99.90
53904;DHT22;39812;52.430;16.936;2023-10-09T05:53:00;7.30;99.90
53904;DHT22;39812;52.430;16.936;2023-10-09T05:55:27;7.30;99.90
53904;DHT22;39812;52.430;16.936;2023-10-09T05:58:12;7.30;99.90
53904;DHT22;39812;52.430;16.936;2023-10-09T06:00:56;7.30;99.90
53904;DHT22;39812;52.430;16.936;2023-10-09T06:03:51;7.40;99.90
53904;DHT22;39812;52.430;16.936;2023-10-09T06:06:20;7.40;99.90
53904;DHT22;39812;52.430;16.936;2023-10-09T06:09:02;7.40;99.90
53904;DHT22;39812;52.430;16.936;2023-10-09T06:11:41;7.40;99.90
53904;DHT22;39812;52.430;16.936;2023-10-09T06:14:16;7.50;99.90
53904;DHT22;39812;52.430;16.936;2023-10-09T06:16:51;7.40;99.90
53904;DHT22;39812;52.430;16.936;2023-10-09T06:19:24;7.40;99.90
53904;DHT22;39812;52.430;16.936;2023-10-09T06:21:57;7.50;99.90
53904;DHT22;39812;52.430;16.936;2023-10-09T06:24:30;7.50;99.90
53904;DHT22;39812;52.430;16.936;2023-10-09T06:27:07;7.60;99.90
53904;DHT22;39812;52.430;16.936;2023-10-09T06:29:32;7.60;99.90
53904;DHT22;39812;52.430;16.936;2023-10-09T06:32:02;7.60;99.90
53904;DHT22;39812;52.430;16.936;2023-10-09T06:35:02;7.70;99.90
53904;DHT22;39812;52.430;16.936;2023-10-09T06:37:48;7.70;99.90
53904;DHT22;39812;52.430;16.936;2023-10-09T06:40:34;7.80;99.90
53904;DHT22;39812;52.430;16.936;2023-10-09T06:43:22;7.90;99.90
53904;DHT22;39812;52.430;16.936;2023-10-09T06:45:48;8.00;99.90
53904;DHT22;39812;52.430;16.936;2023-10-09T06:48:21;8.10;99.90
53904;DHT22;39812;52.430;16.936;2023-10-09T06:51:03;8.30;99.90
53904;DHT22;39812;52.430;16.936;2023-10-09T06:53:33;8.30;99.90
53904;DHT22;39812;52.430;16.936;2023-10-09T06:56:21;8.40;99.90
53904;DHT22;39812;52.430;16.936;2023-10-09T06:58:59;8.50;99.90
53904;DHT22;39812;52.430;16.936;2023-10-09T07:01:30;8.60;99.90
53904;DHT22;39812;52.430;16.936;2023-10-09T07:04:05;8.80;99.90
53904;DHT22;39812;52.430;16.936;2023-10-09T07:07:06;9.00;99.90
53904;DHT22;39812;52.430;16.936;2023-10-09T07:09:46;9.10;99.90
53904;DHT22;39812;52.430;16.936;2023-10-09T07:12:34;9.30;99.90
53904;DHT22;39812;52.430;16.936;2023-10-09T07:15:08;9.40;99.90
53904;DHT22;39812;52.430;16.936;2023-10-09T07:17:33;9.40;99.90
53904;DHT22;39812;52.430;16.936;2023-10-09T07:19:59;9.60;99.90
53904;DHT22;39812;52.430;16.936;2023-10-09T07:22:44;9.70;99.80
53904;DHT22;39812;52.430;16.936;2023-10-09T07:25:19;9.60;99.90
53904;DHT22;39812;52.430;16.936;2023-10-09T07:28:04;9.60;99.90
53904;DHT22;39812;52.430;16.936;2023-10-09T07:30:44;9.60;99.90
53904;DHT22;39812;52.430;16.936;2023-10-09T07:33:11;9.70;99.90
53904;DHT22;39812;52.430;16.936;2023-10-09T07:35:42;9.70;99.40
53904;DHT22;39812;52.430;16.936;2023-10-09T07:38:12;9.70;99.40
53904;DHT22;39812;52.430;16.936;2023-10-09T07:40:40;9.80;99.50
53904;DHT22;39812;52.430;16.936;2023-10-09T07:43:33;10.00;99.00
53904;DHT22;39812;52.430;16.936;2023-10-09T07:46:06;10.40;98.50
53904;DHT22;39812;52.430;16.936;2023-10-09T07:48:50;10.70;97.00
53904;DHT22;39812;52.430;16.936;2023-10-09T07:51:20;10.70;96.30
53904;DHT22;39812;52.430;16.936;2023-10-09T07:53:52;10.50;96.70
53904;DHT22;39812;52.430;16.936;2023-10-09T07:56:37;10.70;96.70
53904;DHT22;39812;52.430;16.936;2023-10-09T07:59:13;10.80;96.60
53904;DHT22;39812;52.430;16.936;2023-10-09T08:01:47;10.90;96.80
53904;DHT22;39812;52.430;16.936;2023-10-09T08:04:28;11.10;96.50
53904;DHT22;39812;52.430;16.936;2023-10-09T08:07:04;11.50;95.50
53904;DHT22;39812;52.430;16.936;2023-10-09T08:09:34;11.80;94.80
53904;DHT22;39812;52.430;16.936;2023-10-09T08:12:13;11.80;94.20
53904;DHT22;39812;52.430;16.936;2023-10-09T08:14:57;11.90;93.60
53904;DHT22;39812;52.430;16.936;2023-10-09T08:17:42;11.90;93.50
53904;DHT22;39812;52.430;16.936;2023-10-09T08:20:13;11.90;93.00
53904;DHT22;39812;52.430;16.936;2023-10-09T08:22:42;12.00;93.00
53904;DHT22;39812;52.430;16.936;2023-10-09T08:25:09;12.10;92.80
53904;DHT22;39812;52.430;16.936;2023-10-09T08:27:55;12.30;93.10
53904;DHT22;39812;52.430;16.936;2023-10-09T08:30:23;12.50;92.60
53904;DHT22;39812;52.430;16.936;2023-10-09T08:32:51;12.70;92.50
53904;DHT22;39812;52.430;16.936;2023-10-09T08:38:02;12.70;93.80
53904;DHT22;39812;52.430;16.936;2023-10-09T08:40:35;12.40;94.10
53904;DHT22;39812;52.430;16.936;2023-10-09T08:43:15;12.30;94.70
53904;DHT22;39812;52.430;16.936;2023-10-09T08:45:48;12.30;94.90
53904;DHT22;39812;52.430;16.936;2023-10-09T08:48:17;12.20;95.00
53904;DHT22;39812;52.430;16.936;2023-10-09T08:50:49;12.00;95.20
53904;DHT22;39812;52.430;16.936;2023-10-09T08:53:16;11.90;95.50
53904;DHT22;39812;52.430;16.936;2023-10-09T08:55:43;11.90;95.60
53904;DHT22;39812;52.430;16.936;2023-10-09T08:58:10;12.10;95.50
53904;DHT22;39812;52.430;16.936;2023-10-09T09:00:47;12.30;95.00
53904;DHT22;39812;52.430;16.936;2023-10-09T09:03:14;12.60;94.90
53904;DHT22;39812;52.430;16.936;2023-10-09T09:05:56;12.80;94.50
53904;DHT22;39812;52.430;16.936;2023-10-09T09:08:23;13.10;93.80
53904;DHT22;39812;52.430;16.936;2023-10-09T09:13:41;13.90;92.20
53904;DHT22;39812;52.430;16.936;2023-10-09T09:16:17;14.00;91.50
53904;DHT22;39812;52.430;16.936;2023-10-09T09:18:57;14.30;91.10
53904;DHT22;39812;52.430;16.936;2023-10-09T09:21:32;14.50;91.30
53904;DHT22;39812;52.430;16.936;2023-10-09T09:24:05;14.30;90.60
53904;DHT22;39812;52.430;16.936;2023-10-09T09:26:50;14.40;90.30
53904;DHT22;39812;52.430;16.936;2023-10-09T09:29:45;14.20;90.60
53904;DHT22;39812;52.430;16.936;2023-10-09T09:32:29;14.20;90.30
53904;DHT22;39812;52.430;16.936;2023-10-09T09:35:02;14.30;90.10
53904;DHT22;39812;52.430;16.936;2023-10-09T09:37:33;14.30;90.20
53904;DHT22;39812;52.430;16.936;2023-10-09T09:40:05;14.20;89.90
53904;DHT22;39812;52.430;16.936;2023-10-09T09:42:49;14.30;89.20
53904;DHT22;39812;52.430;16.936;2023-10-09T09:45:15;14.50;88.30
53904;DHT22;39812;52.430;16.936;2023-10-09T09:47:48;14.60;87.40
53904;DHT22;39812;52.430;16.936;2023-10-09T09:50:19;14.60;86.80
53904;DHT22;39812;52.430;16.936;2023-10-09T09:52:51;14.70;87.10
53904;DHT22;39812;52.430;16.936;2023-10-09T09:55:24;14.40;86.80
53904;DHT22;39812;52.430;16.936;2023-10-09T09:57:56;14.20;86.80
53904;DHT22;39812;52.430;16.936;2023-10-09T10:00:30;14.20;87.80
53904;DHT22;39812;52.430;16.936;2023-10-09T10:05:50;13.80;88.50
53904;DHT22;39812;52.430;16.936;2023-10-09T10:08:20;14.00;88.40
53904;DHT22;39812;52.430;16.936;2023-10-09T10:10:48;13.70;88.50
53904;DHT22;39812;52.430;16.936;2023-10-09T10:13:18;13.90;88.50
53904;DHT22;39812;52.430;16.936;2023-10-09T10:16:13;14.20;87.60
53904;DHT22;39812;52.430;16.936;2023-10-09T10:18:59;14.50;86.50
53904;DHT22;39812;52.430;16.936;2023-10-09T10:21:37;14.90;85.00
53904;DHT22;39812;52.430;16.936;2023-10-09T10:29:46;14.50;85.30
53904;DHT22;39812;52.430;16.936;2023-10-09T10:32:12;14.10;85.10
53904;DHT22;39812;52.430;16.936;2023-10-09T10:37:21;13.60;87.30
53904;DHT22;39812;52.430;16.936;2023-10-09T10:39:54;13.60;86.70
53904;DHT22;39812;52.430;16.936;2023-10-09T10:42:25;13.40;87.20
53904;DHT22;39812;52.430;16.936;2023-10-09T10:45:01;13.10;88.60
53904;DHT22;39812;52.430;16.936;2023-10-09T10:47:28;13.10;88.70
53904;DHT22;39812;52.430;16.936;2023-10-09T10:50:01;13.10;89.30
53904;DHT22;39812;52.430;16.936;2023-10-09T10:53:12;13.10;89.20
53904;DHT22;39812;52.430;16.936;2023-10-09T10:56:01;13.10;88.70
53904;DHT22;39812;52.430;16.936;2023-10-09T10:58:39;13.40;88.90
53904;DHT22;39812;52.430;16.936;2023-10-09T11:01:13;13.40;88.30
53904;DHT22;39812;52.430;16.936;2023-10-09T11:03:42;13.40;88.20
53904;DHT22;39812;52.430;16.936;2023-10-09T11:09:13;13.50;88.10
53904;DHT22;39812;52.430;16.936;2023-10-09T11:12:05;13.40;88.10
53904;DHT22;39812;52.430;16.936;2023-10-09T11:14:47;13.10;89.50
53904;DHT22;39812;52.430;16.936;2023-10-09T11:17:32;13.20;89.00
53904;DHT22;39812;52.430;16.936;2023-10-09T11:19:58;13.60;87.50
53904;DHT22;39812;52.430;16.936;2023-10-09T11:22:25;14.00;86.30
53904;DHT22;39812;52.430;16.936;2023-10-09T11:24:54;14.30;85.80
53904;DHT22;39812;52.430;16.936;2023-10-09T11:27:47;14.60;84.70
53904;DHT22;39812;52.430;16.936;2023-10-09T11:30:16;14.80;83.70
53904;DHT22;39812;52.430;16.936;2023-10-09T11:33:04;14.70;83.40
53904;DHT22;39812;52.430;16.936;2023-10-09T11:35:30;14.30;84.60
53904;DHT22;39812;52.430;16.936;2023-10-09T11:38:00;14.00;85.20
53904;DHT22;39812;52.430;16.936;2023-10-09T11:40:30;13.90;85.40
53904;DHT22;39812;52.430;16.936;2023-10-09T11:43:29;13.80;86.00
53904;DHT22;39812;52.430;16.936;2023-10-09T11:46:13;13.90;86.10
53904;DHT22;39812;52.430;16.936;2023-10-09T11:51:45;14.00;85.50
53904;DHT22;39812;52.430;16.936;2023-10-09T11:54:30;13.90;86.00
53904;DHT22;39812;52.430;16.936;2023-10-09T11:56:57;14.20;85.80
53904;DHT22;39812;52.430;16.936;2023-10-09T11:59:26;14.10;85.70
53904;DHT22;39812;52.430;16.936;2023-10-09T12:01:52;14.10;85.40
53904;DHT22;39812;52.430;16.936;2023-10-09T12:04:18;14.10;85.60
53904;DHT22;39812;52.430;16.936;2023-10-09T12:06:45;14.00;85.50
53904;DHT22;39812;52.430;16.936;2023-10-09T12:09:10;13.60;86.60
53904;DHT22;39812;52.430;16.936;2023-10-09T12:11:49;13.60;86.80
53904;DHT22;39812;52.430;16.936;2023-10-09T12:14:18;13.40;87.20
53904;DHT22;39812;52.430;16.936;2023-10-09T12:16:49;13.50;87.40
53904;DHT22;39812;52.430;16.936;2023-10-09T12:19:15;13.90;87.40
53904;DHT22;39812;52.430;16.936;2023-10-09T12:21:41;14.40;86.00
53904;DHT22;39812;52.430;16.936;2023-10-09T12:24:08;15.00;84.20
53904;DHT22;39812;52.430;16.936;2023-10-09T12:26:37;15.60;82.60
53904;DHT22;39812;52.430;16.936;2023-10-09T12:29:05;15.70;81.60
53904;DHT22;39812;52.430;16.936;2023-10-09T12:31:36;15.80;81.20
53904;DHT22;39812;52.430;16.936;2023-10-09T12:34:02;15.80;80.90
53904;DHT22;39812;52.430;16.936;2023-10-09T12:36:28;15.40;81.50
53904;DHT22;39812;52.430;16.936;2023-10-09T12:38:54;15.30;82.40
53904;DHT22;39812;52.430;16.936;2023-10-09T12:41:24;15.00;83.60
53904;DHT22;39812;52.430;16.936;2023-10-09T12:43:57;14.40;84.90
53904;DHT22;39812;52.430;16.936;2023-10-09T12:46:25;14.60;85.10
53904;DHT22;39812;52.430;16.936;2023-10-09T12:48:52;14.10;85.70
53904;DHT22;39812;52.430;16.936;2023-10-09T12:51:20;14.00;86.30
53904;DHT22;39812;52.430;16.936;2023-10-09T12:53:46;13.70;87.20
53904;DHT22;39812;52.430;16.936;2023-10-09T12:56:25;13.40;88.10
53904;DHT22;39812;52.430;16.936;2023-10-09T12:59:04;13.10;88.60
53904;DHT22;39812;52.430;16.936;2023-10-09T13:01:30;13.00;89.10
53904;DHT22;39812;52.430;16.936;2023-10-09T13:04:11;12.80;90.00
53904;DHT22;39812;52.430;16.936;2023-10-09T13:06:38;12.80;89.90
53904;DHT22;39812;52.430;16.936;2023-10-09T13:09:18;12.90;90.00
53904;DHT22;39812;52.430;16.936;2023-10-09T13:12:08;12.70;89.80
53904;DHT22;39812;52.430;16.936;2023-10-09T13:14:34;12.70;89.50
53904;DHT22;39812;52.430;16.936;2023-10-09T13:17:01;12.70;89.20
53904;DHT22;39812;52.430;16.936;2023-10-09T13:19:34;12.80;89.50
53904;DHT22;39812;52.430;16.936;2023-10-09T13:22:00;12.90;89.10
53904;DHT22;39812;52.430;16.936;2023-10-09T13:24:29;12.80;88.70
53904;DHT22;39812;52.430;16.936;2023-10-09T13:26:56;12.60;89.20
53904;DHT22;39812;52.430;16.936;2023-10-09T13:29:24;12.70;88.90
53904;DHT22;39812;52.430;16.936;2023-10-09T13:31:51;12.70;88.80
53904;DHT22;39812;52.430;16.936;2023-10-09T13:34:23;12.70;88.90
53904;DHT22;39812;52.430;16.936;2023-10-09T13:36:53;12.60;89.30
53904;DHT22;39812;52.430;16.936;2023-10-09T13:39:19;12.60;89.70
53904;DHT22;39812;52.430;16.936;2023-10-09T13:41:46;12.50;90.10
53904;DHT22;39812;52.430;16.936;2023-10-09T13:44:12;12.60;90.10
53904;DHT22;39812;52.430;16.936;2023-10-09T13:46:37;12.70;90.00
53904;DHT22;39812;52.430;16.936;2023-10-09T13:49:07;12.80;89.20
53904;DHT22;39812;52.430;16.936;2023-10-09T13:51:41;12.70;89.70
53904;DHT22;39812;52.430;16.936;2023-10-09T13:54:13;12.60;90.20
53904;DHT22;39812;52.430;16.936;2023-10-09T13:57:00;12.60;90.20
53904;DHT22;39812;52.430;16.936;2023-10-09T13:59:29;12.60;90.20
53904;DHT22;39812;52.430;16.936;2023-10-09T14:01:55;12.60;90.50
53904;DHT22;39812;52.430;16.936;2023-10-09T14:04:21;12.60;90.60
53904;DHT22;39812;52.430;16.936;2023-10-09T14:06:49;12.50;90.80
53904;DHT22;39812;52.430;16.936;2023-10-09T14:09:25;12.50;90.70
53904;DHT22;39812;52.430;16.936;2023-10-09T14:12:00;12.40;90.80
53904;DHT22;39812;52.430;16.936;2023-10-09T14:14:36;12.30;90.90
53904;DHT22;39812;52.430;16.936;2023-10-09T14:17:07;12.30;90.80
53904;DHT22;39812;52.430;16.936;2023-10-09T14:19:42;12.10;90.70
53904;DHT22;39812;52.430;16.936;2023-10-09T14:22:16;12.00;91.10
53904;DHT22;39812;52.430;16.936;2023-10-09T14:24:43;11.80;91.30
53904;DHT22;39812;52.430;16.936;2023-10-09T14:27:12;11.70;91.40
53904;DHT22;39812;52.430;16.936;2023-10-09T14:29:46;11.80;91.60
53904;DHT22;39812;52.430;16.936;2023-10-09T14:32:12;11.60;91.50
53904;DHT22;39812;52.430;16.936;2023-10-09T14:34:39;11.60;91.60
53904;DHT22;39812;52.430;16.936;2023-10-09T14:37:09;11.50;91.80
53904;DHT22;39812;52.430;16.936;2023-10-09T14:39:40;11.40;91.80
53904;DHT22;39812;52.430;16.936;2023-10-09T14:42:07;11.40;91.90
53904;DHT22;39812;52.430;16.936;2023-10-09T14:44:38;11.40;91.90
53904;DHT22;39812;52.430;16.936;2023-10-09T14:47:07;11.30;91.90
53904;DHT22;39812;52.430;16.936;2023-10-09T14:49:33;11.10;92.10
53904;DHT22;39812;52.430;16.936;2023-10-09T14:52:03;11.00;92.20
53904;DHT22;39812;52.430;16.936;2023-10-09T14:54:29;10.90;92.40
53904;DHT22;39812;52.430;16.936;2023-10-09T14:56:54;10.80;92.60
53904;DHT22;39812;52.430;16.936;2023-10-09T14:59:20;10.80;93.10
53904;DHT22;39812;52.430;16.936;2023-10-09T15:01:48;10.70;92.80
53904;DHT22;39812;52.430;16.936;2023-10-09T15:04:19;10.70;92.80
53904;DHT22;39812;52.430;16.936;2023-10-09T15:06:47;10.70;92.90
53904;DHT22;39812;52.430;16.936;2023-10-09T15:09:15;10.70;93.00
53904;DHT22;39812;52.430;16.936;2023-10-09T15:11:54;10.70;93.20
53904;DHT22;39812;52.430;16.936;2023-10-09T15:14:20;10.70;93.30
53904;DHT22;39812;52.430;16.936;2023-10-09T15:16:46;10.70;93.40
53904;DHT22;39812;52.430;16.936;2023-10-09T15:19:13;10.70;93.20
53904;DHT22;39812;52.430;16.936;2023-10-09T15:21:39;10.60;93.30
53904;DHT22;39812;52.430;16.936;2023-10-09T15:24:10;10.60;93.20
53904;DHT22;39812;52.430;16.936;2023-10-09T15:26:46;10.50;93.40
53904;DHT22;39812;52.430;16.936;2023-10-09T15:29:21;10.50;93.60
53904;DHT22;39812;52.430;16.936;2023-10-09T15:32:09;10.40;93.60
53904;DHT22;39812;52.430;16.936;2023-10-09T15:34:40;10.30;93.80
53904;DHT22;39812;52.430;16.936;2023-10-09T15:37:07;10.30;93.80
53904;DHT22;39812;52.430;16.936;2023-10-09T15:39:34;10.40;93.90
53904;DHT22;39812;52.430;16.936;2023-10-09T15:42:00;10.30;94.00
53904;DHT22;39812;52.430;16.936;2023-10-09T15:44:25;10.30;94.20
53904;DHT22;39812;52.430;16.936;2023-10-09T15:46:51;10.30;94.70
53904;DHT22;39812;52.430;16.936;2023-10-09T15:49:27;10.30;94.60
53904;DHT22;39812;52.430;16.936;2023-10-09T15:51:55;10.30;94.70
53904;DHT22;39812;52.430;16.936;2023-10-09T15:54:21;10.20;94.90
53904;DHT22;39812;52.430;16.936;2023-10-09T15:56:47;10.20;95.00
53904;DHT22;39812;52.430;16.936;2023-10-09T15:59:12;10.20;94.90
53904;DHT22;39812;52.430;16.936;2023-10-09T16:01:38;10.20;94.90
53904;DHT22;39812;52.430;16.936;2023-10-09T16:04:08;10.10;95.00
53904;DHT22;39812;52.430;16.936;2023-10-09T16:06:36;10.10;95.20
53904;DHT22;39812;52.430;16.936;2023-10-09T16:09:05;10.10;95.30
53904;DHT22;39812;52.430;16.936;2023-10-09T16:11:31;10.00;95.20
53904;DHT22;39812;52.430;16.936;2023-10-09T16:13:59;10.00;95.30
53904;DHT22;39812;52.430;16.936;2023-10-09T16:16:26;10.10;95.40
53904;DHT22;39812;52.430;16.936;2023-10-09T16:18:52;10.10;95.40
53904;DHT22;39812;52.430;16.936;2023-10-09T16:21:18;10.00;95.30